createdAt,value
2018-04-24T00:00:12.587Z,0.00
2018-04-24T00:01:12.518Z,0.00
2018-04-24T00:02:21.011Z,0.00
2018-04-24T00:03:12.427Z,0.00
2018-04-24T00:04:12.433Z,0.00
2018-04-24T00:05:12.333Z,0.00
2018-04-24T00:06:12.292Z,0.00
2018-04-24T00:07:12.282Z,0.00
2018-04-24T00:08:12.238Z,0.00
2018-04-24T00:09:12.200Z,0.00
2018-04-24T00:10:12.144Z,0.00
2018-04-24T00:11:12.104Z,0.00
2018-04-24T00:12:12.074Z,0.00
2018-04-24T00:13:12.054Z,0.00
2018-04-24T00:14:12.022Z,0.00
2018-04-24T00:15:11.942Z,0.00
2018-04-24T00:16:11.952Z,0.00
2018-04-24T00:17:11.907Z,0.00
2018-04-24T00:18:11.918Z,0.00
2018-04-24T00:19:11.804Z,0.00
2018-04-24T00:20:11.765Z,0.00
2018-04-24T00:21:11.759Z,0.00
2018-04-24T00:22:11.682Z,0.00
2018-04-24T00:23:11.643Z,0.00
2018-04-24T00:24:11.609Z,0.00
2018-04-24T00:25:11.591Z,0.00
2018-04-24T00:26:11.616Z,0.00
2018-04-24T00:27:11.488Z,0.00
2018-04-24T00:28:11.455Z,0.00
2018-04-24T00:29:11.424Z,0.00
2018-04-24T00:30:11.382Z,0.00
2018-04-24T00:31:11.347Z,0.00
2018-04-24T00:32:11.316Z,0.00
2018-04-24T00:33:11.250Z,0.00
2018-04-24T00:34:11.210Z,0.00
2018-04-24T00:35:11.208Z,0.00
2018-04-24T00:36:11.143Z,0.00
2018-04-24T00:37:11.142Z,0.00
2018-04-24T00:38:11.154Z,0.00
2018-04-24T00:39:11.036Z,0.00
2018-04-24T00:40:10.986Z,0.00
2018-04-24T00:41:11.000Z,0.00
2018-04-24T00:42:10.919Z,0.00
2018-04-24T00:43:10.875Z,0.00
2018-04-24T00:44:10.886Z,0.00
2018-04-24T00:45:10.813Z,0.00
2018-04-24T00:46:10.747Z,0.00
2018-04-24T00:47:10.724Z,0.00
2018-04-24T00:48:10.691Z,0.00
2018-04-24T00:49:10.633Z,0.00
2018-04-24T00:50:10.594Z,0.00
2018-04-24T00:51:10.543Z,0.00
2018-04-24T00:52:10.546Z,0.00
2018-04-24T00:53:10.476Z,0.00
2018-04-24T00:54:10.452Z,0.00
2018-04-24T00:55:10.443Z,0.00
2018-04-24T00:56:10.394Z,0.00
2018-04-24T00:57:10.363Z,0.00
2018-04-24T00:58:10.296Z,0.00
2018-04-24T00:59:10.270Z,0.00
2018-04-24T01:00:10.226Z,0.00
2018-04-24T01:01:10.186Z,0.00
2018-04-24T01:02:10.130Z,0.00
2018-04-24T01:03:10.124Z,0.00
2018-04-24T01:04:10.105Z,0.00
2018-04-24T01:05:10.035Z,0.00
2018-04-24T01:06:09.993Z,0.00
2018-04-24T01:07:09.956Z,0.00
2018-04-24T01:08:09.903Z,0.00
2018-04-24T01:09:09.866Z,0.00
2018-04-24T01:10:09.832Z,0.00
2018-04-24T01:11:09.793Z,0.00
2018-04-24T01:12:09.755Z,0.00
2018-04-24T01:13:09.720Z,0.00
2018-04-24T01:14:09.661Z,0.00
2018-04-24T01:15:09.630Z,0.00
2018-04-24T01:16:09.596Z,0.00
2018-04-24T01:17:09.555Z,0.00
2018-04-24T01:18:09.507Z,0.00
2018-04-24T01:19:09.482Z,0.00
2018-04-24T01:20:09.438Z,0.00
2018-04-24T01:21:09.404Z,0.00
2018-04-24T01:22:09.383Z,0.00
2018-04-24T01:23:09.377Z,0.00
2018-04-24T01:24:09.288Z,0.00
2018-04-24T01:25:09.262Z,0.00
2018-04-24T01:26:09.201Z,0.00
2018-04-24T01:27:09.189Z,0.00
2018-04-24T01:28:09.125Z,0.00
2018-04-24T01:29:09.095Z,0.00
2018-04-24T01:30:09.045Z,0.00
2018-04-24T01:31:09.027Z,0.00
2018-04-24T01:32:08.982Z,0.00
2018-04-24T01:33:08.948Z,0.00
2018-04-24T01:34:08.904Z,0.00
2018-04-24T01:35:09.561Z,0.00
2018-04-24T01:36:08.827Z,0.00
2018-04-24T01:37:08.776Z,0.00
2018-04-24T01:38:08.740Z,0.00
2018-04-24T01:39:08.711Z,0.00
2018-04-24T01:40:08.676Z,0.00
2018-04-24T01:41:08.639Z,0.00
2018-04-24T01:42:08.567Z,0.00
2018-04-24T01:43:08.559Z,0.00
2018-04-24T01:44:08.520Z,0.00
2018-04-24T01:45:08.476Z,0.00
2018-04-24T01:46:08.463Z,0.00
2018-04-24T01:47:08.395Z,0.00
2018-04-24T01:48:08.381Z,0.00
2018-04-24T01:49:08.307Z,0.00
2018-04-24T01:50:08.254Z,0.00
2018-04-24T01:51:08.245Z,0.00
2018-04-24T01:52:08.190Z,0.00
2018-04-24T01:53:08.173Z,0.00
2018-04-24T01:54:08.103Z,0.00
2018-04-24T01:55:08.124Z,0.00
2018-04-24T01:56:08.098Z,0.00
2018-04-24T01:57:08.016Z,0.00
2018-04-24T01:58:07.996Z,0.00
2018-04-24T01:59:07.915Z,0.00
2018-04-24T02:00:07.874Z,0.00
2018-04-24T02:01:07.878Z,0.00
2018-04-24T02:02:07.814Z,0.00
2018-04-24T02:03:07.766Z,0.00
2018-04-24T02:04:07.737Z,0.00
2018-04-24T02:05:07.727Z,0.00
2018-04-24T02:06:07.648Z,0.00
2018-04-24T02:07:07.596Z,0.00
2018-04-24T02:08:07.556Z,0.00
2018-04-24T02:09:07.550Z,0.00
2018-04-24T02:10:07.480Z,0.00
2018-04-24T02:11:07.459Z,0.00
2018-04-24T02:12:07.412Z,0.00
2018-04-24T02:13:07.365Z,0.00
2018-04-24T02:14:07.393Z,0.00
2018-04-24T02:15:07.288Z,0.00
2018-04-24T02:16:07.236Z,0.00
2018-04-24T02:17:07.235Z,0.00
2018-04-24T02:18:07.187Z,0.00
2018-04-24T02:19:07.126Z,0.00
2018-04-24T02:20:07.094Z,0.00
2018-04-24T02:21:07.072Z,0.00
2018-04-24T02:22:07.009Z,0.00
2018-04-24T02:23:06.992Z,0.00
2018-04-24T02:24:06.968Z,0.00
2018-04-24T02:25:06.940Z,0.00
2018-04-24T02:26:07.564Z,0.00
2018-04-24T02:27:06.808Z,0.00
2018-04-24T02:28:06.772Z,0.00
2018-04-24T02:29:06.796Z,0.00
2018-04-24T02:30:06.738Z,0.00
2018-04-24T02:31:06.672Z,0.00
2018-04-24T02:32:06.618Z,0.00
2018-04-24T02:33:06.562Z,0.00
2018-04-24T02:34:06.607Z,0.00
2018-04-24T02:35:06.512Z,0.00
2018-04-24T02:36:06.488Z,0.00
2018-04-24T02:37:06.409Z,0.00
2018-04-24T02:38:06.371Z,0.00
2018-04-24T02:39:06.333Z,0.00
2018-04-24T02:40:06.311Z,0.00
2018-04-24T02:41:06.250Z,0.00
2018-04-24T02:42:06.219Z,0.00
2018-04-24T02:43:06.180Z,0.00
2018-04-24T02:44:06.141Z,0.00
2018-04-24T02:45:06.107Z,0.00
2018-04-24T02:46:06.085Z,0.00
2018-04-24T02:47:06.019Z,0.00
2018-04-24T02:48:05.982Z,0.00
2018-04-24T02:49:05.960Z,0.00
2018-04-24T02:50:05.913Z,0.00
2018-04-24T02:51:05.862Z,0.00
2018-04-24T02:52:05.835Z,0.00
2018-04-24T02:53:05.796Z,0.00
2018-04-24T02:54:05.769Z,0.00
2018-04-24T02:55:05.700Z,0.00
2018-04-24T02:56:05.701Z,0.00
2018-04-24T02:57:05.628Z,0.00
2018-04-24T02:58:05.574Z,0.00
2018-04-24T02:59:05.536Z,0.00
2018-04-24T03:00:05.500Z,0.00
2018-04-24T03:01:05.516Z,0.00
2018-04-24T03:02:05.413Z,0.00
2018-04-24T03:03:05.389Z,0.00
2018-04-24T03:04:05.362Z,0.00
2018-04-24T03:05:05.289Z,0.00
2018-04-24T03:06:05.275Z,0.00
2018-04-24T03:07:05.219Z,0.00
2018-04-24T03:08:05.203Z,0.00
2018-04-24T03:09:05.142Z,0.00
2018-04-24T03:10:05.111Z,0.00
2018-04-24T03:11:05.056Z,0.00
2018-04-24T03:12:05.046Z,0.00
2018-04-24T03:13:05.022Z,0.00
2018-04-24T03:14:04.965Z,0.00
2018-04-24T03:15:04.909Z,0.00
2018-04-24T03:16:04.855Z,0.00
2018-04-24T03:17:04.831Z,0.00
2018-04-24T03:18:04.813Z,0.00
2018-04-24T03:19:04.753Z,0.00
2018-04-24T03:20:04.765Z,0.00
2018-04-24T03:21:04.701Z,0.00
2018-04-24T03:22:04.632Z,0.00
2018-04-24T03:23:04.619Z,0.00
2018-04-24T03:24:04.548Z,0.00
2018-04-24T03:25:04.504Z,0.00
2018-04-24T03:26:04.507Z,0.00
2018-04-24T03:27:04.435Z,0.00
2018-04-24T03:28:04.394Z,0.00
2018-04-24T03:29:04.452Z,0.00
2018-04-24T03:30:04.352Z,0.00
2018-04-24T03:31:04.272Z,0.00
2018-04-24T03:32:04.239Z,0.00
2018-04-24T03:33:04.188Z,0.00
2018-04-24T03:34:04.140Z,0.00
2018-04-24T03:35:04.137Z,0.00
2018-04-24T03:36:04.069Z,0.00
2018-04-24T03:37:04.035Z,0.00
2018-04-24T03:38:04.072Z,0.00
2018-04-24T03:39:03.960Z,0.00
2018-04-24T03:40:03.915Z,0.00
2018-04-24T03:41:03.878Z,0.00
2018-04-24T03:42:03.922Z,0.00
2018-04-24T03:43:03.812Z,0.00
2018-04-24T03:44:03.826Z,0.00
2018-04-24T03:45:03.735Z,0.00
2018-04-24T03:46:03.689Z,0.00
2018-04-24T03:47:03.698Z,0.00
2018-04-24T03:48:03.627Z,5.63
2018-04-24T03:49:03.594Z,5.63
2018-04-24T03:50:03.531Z,5.63
2018-04-24T03:51:03.688Z,5.63
2018-04-24T03:52:03.446Z,5.63
2018-04-24T03:53:03.389Z,5.63
2018-04-24T03:54:03.371Z,11.25
2018-04-24T03:55:03.321Z,11.25
2018-04-24T03:56:03.274Z,11.25
2018-04-24T03:57:03.230Z,11.25
2018-04-24T03:58:03.216Z,16.88
2018-04-24T03:59:03.161Z,16.88
2018-04-24T04:00:03.137Z,16.88
2018-04-24T04:01:03.117Z,22.50
2018-04-24T04:02:03.081Z,22.50
2018-04-24T04:03:03.158Z,22.50
2018-04-24T04:04:03.052Z,28.13
2018-04-24T04:05:02.940Z,28.13
2018-04-24T04:06:02.914Z,33.75
2018-04-24T04:07:02.871Z,33.75
2018-04-24T04:08:02.839Z,39.38
2018-04-24T04:09:02.810Z,45.00
2018-04-24T04:10:02.724Z,50.63
2018-04-24T04:11:02.708Z,50.63
2018-04-24T04:12:02.660Z,56.25
2018-04-24T04:13:02.625Z,61.88
2018-04-24T04:14:02.604Z,67.50
2018-04-24T04:15:02.542Z,67.50
2018-04-24T04:16:02.577Z,73.13
2018-04-24T04:17:02.507Z,73.13
2018-04-24T04:18:02.418Z,78.75
2018-04-24T04:19:02.403Z,84.38
2018-04-24T04:20:02.346Z,90.00
2018-04-24T04:21:02.311Z,95.63
2018-04-24T04:22:02.248Z,95.63
2018-04-24T04:23:02.221Z,95.63
2018-04-24T04:24:02.187Z,101.25
2018-04-24T04:25:02.148Z,106.88
2018-04-24T04:26:02.123Z,106.88
2018-04-24T04:27:02.109Z,112.50
2018-04-24T04:28:02.590Z,118.13
2018-04-24T04:29:01.978Z,123.75
2018-04-24T04:30:01.924Z,129.38
2018-04-24T04:31:01.912Z,129.38
2018-04-24T04:32:01.856Z,140.63
2018-04-24T04:33:01.909Z,140.63
2018-04-24T04:34:01.800Z,146.25
2018-04-24T04:35:01.738Z,146.25
2018-04-24T04:36:01.706Z,157.50
2018-04-24T04:37:01.671Z,163.13
2018-04-24T04:38:01.626Z,174.38
2018-04-24T04:39:01.586Z,185.63
2018-04-24T04:40:01.547Z,196.88
2018-04-24T04:41:01.489Z,202.50
2018-04-24T04:42:01.453Z,213.75
2018-04-24T04:43:01.432Z,225.00
2018-04-24T04:44:01.382Z,236.25
2018-04-24T04:45:01.341Z,241.88
2018-04-24T04:46:01.409Z,247.50
2018-04-24T04:47:01.261Z,258.75
2018-04-24T04:48:01.241Z,264.38
2018-04-24T04:49:01.215Z,270.00
2018-04-24T04:50:01.145Z,286.88
2018-04-24T04:51:01.110Z,292.50
2018-04-24T04:52:01.104Z,298.13
2018-04-24T04:53:01.072Z,298.13
2018-04-24T04:54:01.022Z,320.63
2018-04-24T04:55:00.955Z,331.88
2018-04-24T04:56:01.006Z,348.75
2018-04-24T04:57:00.866Z,348.75
2018-04-24T04:58:00.860Z,360.00
2018-04-24T04:59:00.795Z,371.25
2018-04-24T05:00:00.760Z,376.88
2018-04-24T05:01:00.730Z,388.13
2018-04-24T05:02:00.682Z,399.38
2018-04-24T05:03:00.655Z,405.00
2018-04-24T05:04:00.697Z,427.50
2018-04-24T05:05:00.559Z,444.38
2018-04-24T05:06:00.515Z,461.25
2018-04-24T05:07:00.507Z,483.75
2018-04-24T05:08:00.459Z,478.13
2018-04-24T05:09:00.435Z,489.38
2018-04-24T05:10:00.370Z,489.38
2018-04-24T05:11:00.344Z,489.38
2018-04-24T05:12:00.318Z,472.50
2018-04-24T05:13:00.257Z,478.13
2018-04-24T05:14:00.220Z,523.13
2018-04-24T05:15:00.186Z,511.88
2018-04-24T05:16:00.175Z,495.00
2018-04-24T05:17:00.126Z,478.13
2018-04-24T05:18:00.071Z,489.38
2018-04-24T05:19:00.029Z,511.88
2018-04-24T05:19:59.988Z,528.75
2018-04-24T05:21:00.109Z,523.13
2018-04-24T05:21:59.920Z,573.75
2018-04-24T05:22:59.868Z,596.25
2018-04-24T05:23:59.830Z,607.50
2018-04-24T05:24:59.842Z,635.63
2018-04-24T05:25:59.808Z,658.13
2018-04-24T05:26:59.712Z,675.00
2018-04-24T05:27:59.712Z,691.88
2018-04-24T05:28:59.640Z,708.75
2018-04-24T05:29:59.622Z,708.75
2018-04-24T05:30:59.563Z,725.63
2018-04-24T05:31:59.525Z,720.00
2018-04-24T05:32:59.477Z,720.00
2018-04-24T05:33:59.445Z,697.50
2018-04-24T05:34:59.419Z,663.75
2018-04-24T05:35:59.383Z,646.88
2018-04-24T05:36:59.338Z,663.75
2018-04-24T05:37:59.296Z,691.88
2018-04-24T05:38:59.270Z,725.63
2018-04-24T05:39:59.223Z,720.00
2018-04-24T05:40:59.194Z,697.50
2018-04-24T05:41:59.224Z,691.88
2018-04-24T05:42:59.106Z,697.50
2018-04-24T05:43:59.074Z,703.13
2018-04-24T05:44:59.055Z,714.38
2018-04-24T05:45:59.002Z,725.63
2018-04-24T05:46:58.981Z,725.63
2018-04-24T05:47:58.919Z,736.88
2018-04-24T05:48:58.903Z,748.13
2018-04-24T05:49:58.856Z,759.38
2018-04-24T05:50:58.816Z,759.38
2018-04-24T05:51:58.811Z,753.75
2018-04-24T05:52:58.832Z,776.25
2018-04-24T05:53:58.700Z,798.75
2018-04-24T05:54:58.672Z,793.13
2018-04-24T05:55:58.665Z,804.38
2018-04-24T05:56:58.626Z,804.38
2018-04-24T05:57:58.592Z,776.25
2018-04-24T05:58:58.517Z,776.25
2018-04-24T05:59:58.482Z,781.88
2018-04-24T06:00:58.462Z,753.75
2018-04-24T06:01:58.404Z,691.88
2018-04-24T06:02:58.478Z,658.13
2018-04-24T06:03:58.359Z,630.00
2018-04-24T06:04:58.321Z,618.75
2018-04-24T06:05:58.284Z,635.63
2018-04-24T06:06:58.260Z,663.75
2018-04-24T06:07:58.192Z,720.00
2018-04-24T06:08:58.196Z,776.25
2018-04-24T06:09:58.133Z,798.75
2018-04-24T06:10:58.093Z,776.25
2018-04-24T06:11:58.056Z,714.38
2018-04-24T06:12:58.024Z,720.00
2018-04-24T06:13:57.987Z,770.63
2018-04-24T06:14:57.970Z,748.13
2018-04-24T06:15:57.923Z,731.25
2018-04-24T06:16:57.874Z,781.88
2018-04-24T06:17:57.852Z,855.00
2018-04-24T06:18:57.809Z,888.75
2018-04-24T06:19:57.780Z,956.25
2018-04-24T06:20:57.769Z,1040.63
2018-04-24T06:21:57.695Z,1018.13
2018-04-24T06:22:57.710Z,973.13
2018-04-24T06:23:57.655Z,961.88
2018-04-24T06:24:57.607Z,961.88
2018-04-24T06:25:57.558Z,973.13
2018-04-24T06:26:57.532Z,978.75
2018-04-24T06:27:57.548Z,961.88
2018-04-24T06:28:57.450Z,995.63
2018-04-24T06:29:57.426Z,1035.00
2018-04-24T06:30:57.412Z,1040.63
2018-04-24T06:31:57.340Z,1035.00
2018-04-24T06:32:57.325Z,1035.00
2018-04-24T06:33:57.278Z,1023.75
2018-04-24T06:34:57.272Z,1023.75
2018-04-24T06:35:57.201Z,984.38
2018-04-24T06:36:57.174Z,995.63
2018-04-24T06:37:57.150Z,1029.38
2018-04-24T06:38:57.133Z,1023.75
2018-04-24T06:39:57.081Z,1035.00
2018-04-24T06:40:57.052Z,1023.75
2018-04-24T06:41:57.003Z,1046.25
2018-04-24T06:42:56.965Z,1096.88
2018-04-24T06:43:57.626Z,1102.50
2018-04-24T06:44:56.904Z,1096.88
2018-04-24T06:45:56.881Z,1068.75
2018-04-24T06:46:56.939Z,1046.25
2018-04-24T06:47:56.810Z,1035.00
2018-04-24T06:48:56.764Z,1006.88
2018-04-24T06:49:56.749Z,1006.88
2018-04-24T06:50:56.749Z,990.00
2018-04-24T06:51:56.655Z,1175.63
2018-04-24T06:52:56.629Z,1558.13
2018-04-24T06:53:56.581Z,2075.63
2018-04-24T06:54:56.601Z,2756.25
2018-04-24T06:55:56.547Z,2953.13
2018-04-24T06:56:57.139Z,2919.38
2018-04-24T06:57:56.454Z,2823.75
2018-04-24T06:58:56.445Z,2784.38
2018-04-24T06:59:56.404Z,2874.38
2018-04-24T07:00:56.480Z,2857.50
2018-04-24T07:01:56.344Z,2778.75
2018-04-24T07:02:56.339Z,2790.00
2018-04-24T07:03:56.273Z,3043.13
2018-04-24T07:04:56.245Z,2840.63
2018-04-24T07:05:56.246Z,3144.38
2018-04-24T07:06:56.205Z,3436.88
2018-04-24T07:07:56.152Z,3684.38
2018-04-24T07:08:56.115Z,3639.38
2018-04-24T07:09:56.087Z,3560.63
2018-04-24T07:10:56.054Z,3498.75
2018-04-24T07:11:56.043Z,3290.63
2018-04-24T07:12:56.022Z,3296.25
2018-04-24T07:13:55.971Z,3116.25
2018-04-24T07:14:55.972Z,2784.38
2018-04-24T07:15:55.932Z,2548.13
2018-04-24T07:16:55.939Z,2356.88
2018-04-24T07:17:55.895Z,2373.75
2018-04-24T07:18:55.881Z,2446.88
2018-04-24T07:19:55.847Z,3015.00
2018-04-24T07:20:55.821Z,2739.38
2018-04-24T07:21:55.799Z,2851.88
2018-04-24T07:22:55.780Z,2818.13
2018-04-24T07:23:55.733Z,2795.63
2018-04-24T07:24:55.697Z,2711.25
2018-04-24T07:25:55.659Z,2891.25
2018-04-24T07:26:55.631Z,2790.00
2018-04-24T07:27:55.632Z,2660.63
2018-04-24T07:28:55.593Z,2581.88
2018-04-24T07:29:55.562Z,2508.75
2018-04-24T07:30:55.579Z,2424.38
2018-04-24T07:31:55.526Z,2238.75
2018-04-24T07:32:55.521Z,2137.50
2018-04-24T07:33:55.612Z,2154.38
2018-04-24T07:34:55.453Z,2075.63
2018-04-24T07:35:55.418Z,2070.00
2018-04-24T07:36:55.405Z,2261.25
2018-04-24T07:37:55.370Z,2278.13
2018-04-24T07:38:55.347Z,2075.63
2018-04-24T07:39:55.339Z,2030.63
2018-04-24T07:40:55.308Z,2131.88
2018-04-24T07:41:55.276Z,2092.50
2018-04-24T07:42:55.258Z,2300.63
2018-04-24T07:43:56.159Z,2221.88
2018-04-24T07:44:55.211Z,2075.63
2018-04-24T07:45:55.199Z,2182.50
2018-04-24T07:46:55.247Z,2047.50
2018-04-24T07:47:55.117Z,1974.38
2018-04-24T07:48:55.119Z,1940.63
2018-04-24T07:49:55.067Z,1985.63
2018-04-24T07:50:55.041Z,1980.00
2018-04-24T07:51:55.034Z,1991.25
2018-04-24T07:52:54.966Z,2221.88
2018-04-24T07:53:55.012Z,2289.38
2018-04-24T07:54:54.927Z,2368.13
2018-04-24T07:55:54.909Z,2514.38
2018-04-24T07:56:54.904Z,2576.25
2018-04-24T07:57:54.844Z,2716.88
2018-04-24T07:58:54.836Z,2542.50
2018-04-24T07:59:54.798Z,2362.50
2018-04-24T08:00:54.787Z,2283.75
2018-04-24T08:01:54.749Z,2424.38
2018-04-24T08:02:54.706Z,2351.25
2018-04-24T08:03:54.678Z,2356.88
2018-04-24T08:04:54.644Z,2385.00
2018-04-24T08:05:55.152Z,2356.88
2018-04-24T08:06:54.583Z,2216.25
2018-04-24T08:07:54.588Z,2261.25
2018-04-24T08:08:54.533Z,2340.00
2018-04-24T08:09:54.500Z,2446.88
2018-04-24T08:10:54.490Z,2508.75
2018-04-24T08:11:54.460Z,2711.25
2018-04-24T08:12:54.410Z,2739.38
2018-04-24T08:13:54.393Z,2750.63
2018-04-24T08:14:54.376Z,2947.50
2018-04-24T08:15:54.347Z,3037.50
2018-04-24T08:16:54.310Z,2182.50
2018-04-24T08:17:54.284Z,3144.38
2018-04-24T08:18:54.331Z,3240.00
2018-04-24T08:19:54.241Z,2784.38
2018-04-24T08:20:54.243Z,3093.75
2018-04-24T08:21:54.191Z,2868.75
2018-04-24T08:22:54.323Z,2908.13
2018-04-24T08:23:54.136Z,2520.00
2018-04-24T08:24:54.139Z,2790.00
2018-04-24T08:25:54.167Z,2902.50
2018-04-24T08:26:54.046Z,2936.25
2018-04-24T08:27:54.023Z,2458.13
2018-04-24T08:28:54.058Z,2351.25
2018-04-24T08:29:53.969Z,3003.75
2018-04-24T08:30:53.965Z,2998.13
2018-04-24T08:31:54.665Z,2441.25
2018-04-24T08:32:53.870Z,2553.75
2018-04-24T08:33:53.909Z,2362.50
2018-04-24T08:34:53.853Z,2458.13
2018-04-24T08:35:53.801Z,2407.50
2018-04-24T08:36:53.777Z,2103.75
2018-04-24T08:37:53.771Z,2626.88
2018-04-24T08:38:53.749Z,3020.63
2018-04-24T08:39:53.689Z,2947.50
2018-04-24T08:40:53.652Z,2840.63
2018-04-24T08:41:53.665Z,2941.88
2018-04-24T08:42:53.644Z,3228.75
2018-04-24T08:43:53.599Z,3093.75
2018-04-24T08:44:53.552Z,2531.25
2018-04-24T08:45:53.519Z,3515.63
2018-04-24T08:46:53.542Z,3425.63
2018-04-24T08:47:53.489Z,3183.75
2018-04-24T08:48:53.493Z,3178.13
2018-04-24T08:49:53.428Z,3240.00
2018-04-24T08:50:53.384Z,3386.25
2018-04-24T08:51:53.359Z,3358.13
2018-04-24T08:52:53.388Z,3521.25
2018-04-24T08:53:53.324Z,3628.13
2018-04-24T08:54:53.318Z,3448.13
2018-04-24T08:55:53.260Z,3701.25
2018-04-24T08:56:53.244Z,3751.88
2018-04-24T08:57:53.207Z,3301.88
2018-04-24T08:58:53.182Z,3476.25
2018-04-24T08:59:53.152Z,3526.88
2018-04-24T09:00:53.123Z,3031.88
2018-04-24T09:01:53.129Z,3048.75
2018-04-24T09:02:53.075Z,3780.00
2018-04-24T09:03:53.057Z,3183.75
2018-04-24T09:04:53.025Z,4173.75
2018-04-24T09:05:53.025Z,4106.25
2018-04-24T09:06:52.985Z,4106.25
2018-04-24T09:07:52.954Z,4252.50
2018-04-24T09:08:52.935Z,3628.13
2018-04-24T09:09:52.885Z,3673.13
2018-04-24T09:10:52.893Z,3459.38
2018-04-24T09:11:53.682Z,3009.38
2018-04-24T09:12:52.827Z,2941.88
2018-04-24T09:13:52.798Z,2430.00
2018-04-24T09:14:52.793Z,2688.75
2018-04-24T09:15:52.752Z,2998.13
2018-04-24T09:16:52.745Z,2958.75
2018-04-24T09:17:52.716Z,3105.00
2018-04-24T09:18:52.705Z,3487.50
2018-04-24T09:19:52.641Z,3262.50
2018-04-24T09:20:52.673Z,3566.25
2018-04-24T09:21:52.628Z,3870.00
2018-04-24T09:22:52.582Z,4640.63
2018-04-24T09:23:52.554Z,4286.25
2018-04-24T09:24:52.516Z,4297.50
2018-04-24T09:25:52.497Z,4640.63
2018-04-24T09:26:52.535Z,4471.88
2018-04-24T09:27:52.460Z,4297.50
2018-04-24T09:28:52.432Z,4111.88
2018-04-24T09:29:52.405Z,4584.38
2018-04-24T09:30:52.397Z,4590.00
2018-04-24T09:31:52.349Z,4590.00
2018-04-24T09:32:52.345Z,4078.13
2018-04-24T09:33:52.297Z,3695.63
2018-04-24T09:34:52.271Z,3577.50
2018-04-24T09:35:52.253Z,4145.63
2018-04-24T09:36:52.224Z,4691.25
2018-04-24T09:37:52.198Z,4612.50
2018-04-24T09:38:52.192Z,4410.00
2018-04-24T09:39:52.169Z,4230.00
2018-04-24T09:40:52.150Z,4325.63
2018-04-24T09:41:52.101Z,3976.88
2018-04-24T09:42:52.106Z,4325.63
2018-04-24T09:43:52.105Z,4770.00
2018-04-24T09:44:52.074Z,4460.63
2018-04-24T09:45:52.061Z,4415.63
2018-04-24T09:46:52.077Z,4910.63
2018-04-24T09:47:51.987Z,4629.38
2018-04-24T09:48:52.039Z,4646.25
2018-04-24T09:49:51.926Z,4612.50
2018-04-24T09:50:51.894Z,4528.13
2018-04-24T09:51:51.876Z,4725.00
2018-04-24T09:52:51.857Z,5040.00
2018-04-24T09:53:51.852Z,5101.88
2018-04-24T09:54:51.807Z,4370.63
2018-04-24T09:55:51.777Z,4438.13
2018-04-24T09:56:51.774Z,4460.63
2018-04-24T09:57:51.733Z,4185.00
2018-04-24T09:58:51.699Z,3701.25
2018-04-24T09:59:51.695Z,3211.88
2018-04-24T10:00:51.653Z,3363.75
2018-04-24T10:01:51.631Z,3273.75
2018-04-24T10:02:51.661Z,3898.13
2018-04-24T10:03:51.680Z,4713.75
2018-04-24T10:04:51.641Z,4747.50
2018-04-24T10:05:51.597Z,5141.25
2018-04-24T10:06:51.521Z,5799.38
2018-04-24T10:07:51.646Z,5439.38
2018-04-24T10:08:51.468Z,4955.63
2018-04-24T10:09:51.449Z,4522.50
2018-04-24T10:10:51.431Z,4387.50
2018-04-24T10:11:51.397Z,4573.13
2018-04-24T10:12:51.391Z,4713.75
2018-04-24T10:13:51.362Z,4786.88
2018-04-24T10:14:51.339Z,5090.63
2018-04-24T10:15:51.339Z,5416.88
2018-04-24T10:16:51.278Z,5878.13
2018-04-24T10:17:51.283Z,5197.50
2018-04-24T10:18:51.239Z,4815.00
2018-04-24T10:19:51.283Z,5073.75
2018-04-24T10:20:51.209Z,5040.00
2018-04-24T10:21:51.291Z,5175.00
2018-04-24T10:22:51.156Z,5079.38
2018-04-24T10:23:51.135Z,4950.00
2018-04-24T10:24:51.114Z,5208.75
2018-04-24T10:25:51.089Z,4995.00
2018-04-24T10:26:51.077Z,4820.63
2018-04-24T10:27:51.041Z,4578.75
2018-04-24T10:28:51.044Z,5118.75
2018-04-24T10:29:50.994Z,6193.13
2018-04-24T10:30:50.975Z,6738.75
2018-04-24T10:31:50.958Z,6536.25
2018-04-24T10:32:50.928Z,6277.50
2018-04-24T10:33:50.889Z,6423.75
2018-04-24T10:34:50.889Z,6165.00
2018-04-24T10:35:50.850Z,6721.88
2018-04-24T10:36:50.842Z,6609.38
2018-04-24T10:37:50.835Z,5647.50
2018-04-24T10:38:50.813Z,4359.38
2018-04-24T10:39:50.758Z,4696.88
2018-04-24T10:40:50.743Z,4275.00
2018-04-24T10:41:50.718Z,4381.88
2018-04-24T10:42:50.735Z,4516.88
2018-04-24T10:43:50.843Z,3656.25
2018-04-24T10:44:50.655Z,3858.75
2018-04-24T10:45:50.627Z,4145.63
2018-04-24T10:46:50.595Z,3802.50
2018-04-24T10:47:50.585Z,3656.25
2018-04-24T10:48:50.560Z,3633.75
2018-04-24T10:49:50.552Z,3133.13
2018-04-24T10:50:50.524Z,2840.63
2018-04-24T10:51:50.542Z,3504.38
2018-04-24T10:52:50.457Z,2677.50
2018-04-24T10:53:50.448Z,2615.63
2018-04-24T10:54:50.426Z,2559.38
2018-04-24T10:55:50.423Z,2688.75
2018-04-24T10:56:50.386Z,2908.13
2018-04-24T10:57:50.355Z,2750.63
2018-04-24T10:58:50.325Z,2694.38
2018-04-24T10:59:50.298Z,2666.25
2018-04-24T11:00:50.281Z,2716.88
2018-04-24T11:01:50.259Z,2486.25
2018-04-24T11:02:50.236Z,2396.25
2018-04-24T11:03:50.195Z,2401.88
2018-04-24T11:04:50.169Z,2452.50
2018-04-24T11:05:50.186Z,2446.88
2018-04-24T11:06:50.143Z,2424.38
2018-04-24T11:07:50.110Z,2373.75
2018-04-24T11:08:50.083Z,2373.75
2018-04-24T11:09:50.061Z,2373.75
2018-04-24T11:10:50.033Z,2435.63
2018-04-24T11:11:50.076Z,2531.25
2018-04-24T11:12:49.990Z,2621.25
2018-04-24T11:13:49.968Z,2677.50
2018-04-24T11:14:49.937Z,2745.00
2018-04-24T11:15:49.902Z,2666.25
2018-04-24T11:16:49.915Z,2610.00
2018-04-24T11:17:49.869Z,2581.88
2018-04-24T11:18:49.834Z,2570.63
2018-04-24T11:19:49.793Z,2576.25
2018-04-24T11:20:49.778Z,2581.88
2018-04-24T11:21:49.751Z,2610.00
2018-04-24T11:22:49.730Z,2913.75
2018-04-24T11:23:49.741Z,2756.25
2018-04-24T11:24:49.661Z,2677.50
2018-04-24T11:25:49.649Z,2621.25
2018-04-24T11:26:49.687Z,2649.38
2018-04-24T11:27:49.592Z,2739.38
2018-04-24T11:28:49.560Z,2621.25
2018-04-24T11:29:49.572Z,2649.38
2018-04-24T11:30:49.518Z,2851.88
2018-04-24T11:31:49.481Z,3391.88
2018-04-24T11:32:49.498Z,3740.63
2018-04-24T11:33:49.489Z,3971.25
2018-04-24T11:34:49.427Z,3645.00
2018-04-24T11:35:49.391Z,3785.63
2018-04-24T11:36:49.391Z,3414.38
2018-04-24T11:37:49.365Z,3673.13
2018-04-24T11:38:49.335Z,3313.13
2018-04-24T11:39:49.310Z,3307.50
2018-04-24T11:40:49.310Z,3487.50
2018-04-24T11:41:49.224Z,3127.50
2018-04-24T11:42:49.201Z,3110.63
2018-04-24T11:43:49.235Z,2908.13
2018-04-24T11:44:49.152Z,2902.50
2018-04-24T11:45:49.133Z,2812.50
2018-04-24T11:46:49.118Z,2773.13
2018-04-24T11:47:49.084Z,2795.63
2018-04-24T11:48:49.060Z,2801.25
2018-04-24T11:49:49.041Z,2767.50
2018-04-24T11:50:48.985Z,2733.75
2018-04-24T11:51:48.979Z,2750.63
2018-04-24T11:52:48.958Z,2846.25
2018-04-24T11:53:48.950Z,2880.00
2018-04-24T11:54:48.911Z,2885.63
2018-04-24T11:55:48.866Z,2970.00
2018-04-24T11:56:48.838Z,3076.88
2018-04-24T11:57:48.804Z,3228.75
2018-04-24T11:58:48.865Z,3403.13
2018-04-24T11:59:48.755Z,3538.13
2018-04-24T12:00:48.727Z,3403.13
2018-04-24T12:01:48.733Z,3408.75
2018-04-24T12:02:48.709Z,3268.13
2018-04-24T12:03:48.647Z,3178.13
2018-04-24T12:04:48.634Z,3043.13
2018-04-24T12:05:48.621Z,2953.13
2018-04-24T12:06:48.579Z,2919.38
2018-04-24T12:07:48.573Z,2936.25
2018-04-24T12:08:48.536Z,3015.00
2018-04-24T12:09:48.507Z,3105.00
2018-04-24T12:10:48.538Z,3234.38
2018-04-24T12:11:48.453Z,3183.75
2018-04-24T12:12:48.465Z,3161.25
2018-04-24T12:13:48.394Z,3211.88
2018-04-24T12:14:48.397Z,3290.63
2018-04-24T12:15:48.389Z,3228.75
2018-04-24T12:16:48.316Z,3341.25
2018-04-24T12:17:48.302Z,3510.00
2018-04-24T12:18:48.280Z,3510.00
2018-04-24T12:19:48.243Z,3611.25
2018-04-24T12:20:48.223Z,3718.13
2018-04-24T12:21:48.207Z,3785.63
2018-04-24T12:22:48.184Z,4218.75
2018-04-24T12:23:48.146Z,3853.13
2018-04-24T12:24:48.151Z,3740.63
2018-04-24T12:25:48.090Z,3768.75
2018-04-24T12:26:48.068Z,3375.00
2018-04-24T12:27:48.110Z,3296.25
2018-04-24T12:28:48.030Z,3408.75
2018-04-24T12:29:47.997Z,3110.63
2018-04-24T12:30:47.996Z,3268.13
2018-04-24T12:31:47.942Z,2671.88